Time;durP1;ratioP1;P1;durP2;ratioP2;P2;SDS_P1;SDS_P2;PMS_P1;PMS_P2;Temp;Humidity;BMP_temperature;BMP_pressure;BME280_temperature;BME280_humidity;BME280_pressure;Samples;Min_cycle;Max_cycle;Signal;HPM_P1;HPM_P2
2022/10/14 00:00:03;;;;;;;;;;;21.60;47.20;20.30;101106.00;;;;5075442;28;19923;-67
2022/10/14 00:02:48;;;;;;;;;;;21.60;47.20;20.30;101115.00;;;;5080578;28;19915;-67
2022/10/14 00:05:38;;;;;;;;;;;21.60;47.20;20.30;101105.00;;;;5080187;28;19928;-68
2022/10/14 00:08:24;;;;;;;;;;;21.60;47.20;20.30;101105.00;;;;5082648;28;19920;-67
2022/10/14 00:11:12;;;;;;;;;;;21.60;47.20;20.30;101110.00;;;;5086559;28;19956;-67
2022/10/14 00:14:07;;;;;;;;;;;21.50;47.20;20.30;101101.00;;;;5085283;27;19927;-67
2022/10/14 00:16:54;;;;;;;;;;;21.60;47.20;20.30;101099.00;;;;5089288;28;19978;-68
2022/10/14 00:19:40;;;;;;;;;;;21.60;47.30;20.30;101089.00;;;;5090536;28;19920;-67
2022/10/14 00:22:26;;;;;;;;;;;21.50;47.20;20.30;101101.00;;;;5076195;28;19923;-67
2022/10/14 00:25:12;;;;;;;;;;;21.60;47.30;20.30;101100.00;;;;5106116;27;19977;-67
2022/10/14 00:28:02;;;;;;;;;;;21.60;47.30;20.30;101090.00;;;;5095694;28;19920;-67
2022/10/14 00:30:58;;;;;;;;;;;21.60;47.30;20.30;101087.00;;;;5097995;28;20397;-67
2022/10/14 00:33:44;;;;;;;;;;;21.50;47.20;20.30;101084.00;;;;5098928;28;20151;-67
2022/10/14 00:36:30;;;;;;;;;;;21.60;47.30;20.30;101085.00;;;;5099747;28;19915;-67
2022/10/14 00:39:16;;;;;;;;;;;21.60;47.30;20.30;101085.00;;;;5092213;28;20390;-67
2022/10/14 00:42:02;;;;;;;;;;;21.60;47.30;20.30;101086.00;;;;5107264;27;19961;-67
2022/10/14 00:44:48;;;;;;;;;;;21.50;47.30;20.30;101091.00;;;;5099745;28;20311;-67
2022/10/14 00:47:34;;;;;;;;;;;21.60;47.30;20.30;101091.00;;;;5096816;28;20118;-67
2022/10/14 00:50:20;;;;;;;;;;;21.60;47.30;20.30;101088.00;;;;5092977;28;20365;-67
2022/10/14 00:53:07;;;;;;;;;;;21.60;47.30;20.30;101085.00;;;;5101770;28;19919;-67
2022/10/14 00:55:53;;;;;;;;;;;21.50;47.30;20.30;101079.00;;;;5098736;28;19916;-67
2022/10/14 00:58:39;;;;;;;;;;;21.60;47.30;20.30;101084.00;;;;5102352;28;19919;-67
2022/10/14 01:01:25;;;;;;;;;;;21.60;47.30;20.30;101085.00;;;;5090542;28;19924;-67
2022/10/14 01:04:11;;;;;;;;;;;21.60;47.30;20.30;101087.00;;;;5100198;28;19924;-67
2022/10/14 01:07:03;;;;;;;;;;;21.60;47.30;20.30;101094.00;;;;5095021;28;19931;-67
2022/10/14 01:10:02;;;;;;;;;;;21.50;47.30;20.30;101080.00;;;;5111772;27;19930;-67
2022/10/14 01:12:58;;;;;;;;;;;21.60;47.40;20.30;101086.00;;;;5099785;28;19915;-67
2022/10/14 01:15:55;;;;;;;;;;;21.60;47.30;20.30;101091.00;;;;5108267;27;20372;-67
2022/10/14 01:19:29;;;;;;;;;;;21.60;47.40;20.30;101091.00;;;;5081339;28;20002;-67
2022/10/14 01:22:24;;;;;;;;;;;21.60;47.40;20.30;101096.00;;;;5096817;28;19924;-67
2022/10/14 01:25:18;;;;;;;;;;;21.50;47.30;20.30;101081.00;;;;5084454;28;19931;-67
2022/10/14 01:28:36;;;;;;;;;;;21.50;47.40;20.30;101087.00;;;;5088174;28;19947;-67
2022/10/14 01:31:24;;;;;;;;;;;21.60;47.40;20.30;101082.00;;;;5102626;27;19928;-67
2022/10/14 01:34:10;;;;;;;;;;;21.60;47.40;20.30;101080.00;;;;5081325;28;19916;-67
2022/10/14 01:37:02;;;;;;;;;;;21.60;47.50;20.30;101084.00;;;;5072645;28;19923;-67
2022/10/14 01:39:50;;;;;;;;;;;21.60;47.50;20.30;101090.00;;;;5075078;28;19926;-67
2022/10/14 01:42:36;;;;;;;;;;;21.60;47.50;20.30;101080.00;;;;5079874;28;19917;-67
2022/10/14 01:45:22;;;;;;;;;;;21.60;47.50;20.30;101080.00;;;;5075693;28;20364;-67
2022/10/14 01:48:08;;;;;;;;;;;21.60;47.50;20.30;101080.00;;;;5067943;28;19919;-67
2022/10/14 01:50:54;;;;;;;;;;;21.60;47.50;20.30;101077.00;;;;5072329;28;20284;-67
2022/10/14 01:53:48;;;;;;;;;;;21.50;47.50;20.30;101074.00;;;;5086134;28;20285;-67
2022/10/14 01:56:34;;;;;;;;;;;21.50;47.50;20.20;101074.00;;;;5097971;27;19917;-67
2022/10/14 01:59:20;;;;;;;;;;;21.50;47.50;20.20;101070.00;;;;5079893;28;20038;-67
2022/10/14 02:02:06;;;;;;;;;;;21.50;47.50;20.20;101071.00;;;;5095192;27;19943;-67
2022/10/14 02:04:52;;;;;;;;;;;21.50;47.50;20.20;101075.00;;;;5075635;28;20315;-67
2022/10/14 02:07:39;;;;;;;;;;;21.50;47.50;20.20;101073.00;;;;5081510;28;19923;-67
2022/10/14 02:10:52;;;;;;;;;;;21.50;47.50;20.20;101078.00;;;;5095104;27;19923;-67
2022/10/14 02:14:20;;;;;;;;;;;21.50;47.50;20.20;101074.00;;;;5067743;28;19924;-67
2022/10/14 02:17:18;;;;;;;;;;;21.50;47.50;20.20;101076.00;;;;5004656;28;19917;-67
2022/10/14 02:20:38;;;;;;;;;;;21.50;47.50;20.20;101072.00;;;;5005234;28;19948;-67
2022/10/14 02:23:31;;;;;;;;;;;21.50;47.50;20.20;101072.00;;;;5061012;28;19924;-67
2022/10/14 02:26:17;;;;;;;;;;;21.50;47.50;20.20;101068.00;;;;5057469;28;19975;-67
2022/10/14 02:29:03;;;;;;;;;;;21.50;47.50;20.20;101071.00;;;;5095590;27;20247;-67
2022/10/14 02:31:49;;;;;;;;;;;21.50;47.50;20.20;101077.00;;;;5058334;28;20311;-67
2022/10/14 02:34:35;;;;;;;;;;;21.40;47.40;20.20;101065.00;;;;5078312;28;20010;-67
2022/10/14 02:37:21;;;;;;;;;;;21.40;47.40;20.20;101063.00;;;;5083271;28;19931;-67
2022/10/14 02:40:12;;;;;;;;;;;21.40;47.40;20.20;101056.00;;;;5086804;28;19924;-67
2022/10/14 02:42:58;;;;;;;;;;;21.50;47.50;20.20;101067.00;;;;5079567;28;20570;-67
2022/10/14 02:45:44;;;;;;;;;;;21.40;47.40;20.20;101058.00;;;;5084424;28;20432;-67
2022/10/14 02:48:30;;;;;;;;;;;21.50;47.50;20.20;101062.00;;;;5066545;28;19919;-67
2022/10/14 02:51:16;;;;;;;;;;;21.40;47.40;20.20;101061.00;;;;5084187;28;19932;-67
2022/10/14 02:54:02;;;;;;;;;;;21.50;47.50;20.20;101063.00;;;;5075539;28;20310;-67
2022/10/14 02:56:48;;;;;;;;;;;21.50;47.50;20.20;101065.00;;;;5086672;28;19915;-67
2022/10/14 02:59:34;;;;;;;;;;;21.50;47.50;20.20;101066.00;;;;5084227;28;20396;-67
2022/10/14 03:02:20;;;;;;;;;;;21.50;47.50;20.20;101068.00;;;;5077376;28;19927;-67
2022/10/14 03:05:07;;;;;;;;;;;21.50;47.50;20.30;101076.00;;;;5083615;28;19924;-67
2022/10/14 03:07:53;;;;;;;;;;;21.50;47.50;20.30;101069.00;;;;5085901;28;20361;-67
2022/10/14 03:10:38;;;;;;;;;;;21.50;47.50;20.30;101069.00;;;;5082454;28;19951;-67
2022/10/14 03:13:24;;;;;;;;;;;21.50;47.50;20.30;101064.00;;;;5090586;28;19962;-67
2022/10/14 03:16:10;;;;;;;;;;;21.40;47.40;20.30;101058.00;;;;5091171;28;19920;-68
2022/10/14 03:18:56;;;;;;;;;;;21.50;47.50;20.30;101056.00;;;;5083415;28;20139;-67
2022/10/14 03:21:42;;;;;;;;;;;21.50;47.50;20.30;101050.00;;;;5080918;28;19928;-68
2022/10/14 03:24:28;;;;;;;;;;;21.40;47.40;20.30;101053.00;;;;5092737;28;19965;-67
2022/10/14 03:27:14;;;;;;;;;;;21.50;48.20;20.30;101056.00;;;;5087842;28;19968;-67
2022/10/14 03:30:00;;;;;;;;;;;21.50;47.50;20.30;101059.00;;;;5078588;28;20289;-67
2022/10/14 03:32:46;;;;;;;;;;;21.50;47.50;20.30;101048.00;;;;5089874;28;20289;-67
2022/10/14 03:35:32;;;;;;;;;;;21.50;47.50;20.30;101068.00;;;;5077109;28;19916;-67
2022/10/14 03:38:18;;;;;;;;;;;21.50;47.50;20.20;101053.00;;;;5092715;27;20153;-67
2022/10/14 03:41:04;;;;;;;;;;;21.50;47.50;20.30;101063.00;;;;5079335;28;19920;-67
2022/10/14 03:43:50;;;;;;;;;;;21.50;47.50;20.30;101058.00;;;;5076861;28;19924;-67
2022/10/14 03:46:36;;;;;;;;;;;21.50;47.50;20.20;101046.00;;;;5080573;28;19925;-68
2022/10/14 03:49:22;;;;;;;;;;;21.50;47.50;20.20;101040.00;;;;5084673;28;19916;-67
2022/10/14 03:52:08;;;;;;;;;;;21.50;47.50;20.30;101027.00;;;;5074718;28;19916;-67
2022/10/14 03:54:54;;;;;;;;;;;21.50;47.50;20.30;101023.00;;;;5073787;28;19928;-67
2022/10/14 03:57:40;;;;;;;;;;;21.50;47.50;20.30;101031.00;;;;5078065;28;20289;-67
2022/10/14 04:00:26;;;;;;;;;;;21.50;47.70;20.30;101021.00;;;;5074398;28;20446;-67
2022/10/14 04:03:12;;;;;;;;;;;21.50;47.50;20.30;101031.00;;;;5081638;28;19923;-68
2022/10/14 04:05:58;;;;;;;;;;;21.50;47.50;20.30;101026.00;;;;5077227;28;19923;-67
2022/10/14 04:08:44;;;;;;;;;;;21.50;47.50;20.30;101033.00;;;;5089684;28;20378;-67
2022/10/14 04:11:30;;;;;;;;;;;21.50;47.50;20.30;101029.00;;;;5079600;28;20009;-67
2022/10/14 04:14:16;;;;;;;;;;;21.50;47.50;20.30;101035.00;;;;5083373;28;19916;-67
2022/10/14 04:17:02;;;;;;;;;;;21.50;47.50;20.30;101033.00;;;;5076976;28;19923;-67
2022/10/14 04:19:49;;;;;;;;;;;21.50;47.50;20.30;101030.00;;;;5091486;28;19924;-67
2022/10/14 04:22:35;;;;;;;;;;;21.50;47.50;20.30;101032.00;;;;5098401;27;19919;-67
2022/10/14 04:25:21;;;;;;;;;;;21.50;47.50;20.30;101037.00;;;;5077459;28;20010;-68
2022/10/14 04:28:06;;;;;;;;;;;21.50;47.50;20.30;101038.00;;;;5073795;28;20373;-67
2022/10/14 04:30:52;;;;;;;;;;;21.50;47.50;20.30;101028.00;;;;5089387;28;19927;-67
2022/10/14 04:33:38;;;;;;;;;;;21.50;47.50;20.30;101019.00;;;;5078039;28;19916;-67
2022/10/14 04:36:24;;;;;;;;;;;21.50;47.50;20.30;101020.00;;;;5075926;28;19942;-67
2022/10/14 04:39:10;;;;;;;;;;;21.50;47.50;20.30;101018.00;;;;5083741;28;20372;-67
2022/10/14 04:41:56;;;;;;;;;;;21.50;47.50;20.30;101024.00;;;;5088038;28;20224;-68
2022/10/14 04:44:42;;;;;;;;;;;21.50;47.50;20.30;101020.00;;;;5084491;28;20025;-67
2022/10/14 04:47:29;;;;;;;;;;;21.60;47.50;20.30;101019.00;;;;5074727;28;19920;-67
2022/10/14 04:50:15;;;;;;;;;;;21.50;47.50;20.30;101009.00;;;;5079823;28;19916;-67
2022/10/14 04:53:01;;;;;;;;;;;21.50;47.50;20.30;101007.00;;;;5069625;28;19928;-67
2022/10/14 04:55:48;;;;;;;;;;;21.50;47.50;20.30;101008.00;;;;5082316;28;19935;-67
2022/10/14 04:58:34;;;;;;;;;;;21.50;47.50;20.30;101014.00;;;;5087193;28;19966;-67
2022/10/14 05:01:20;;;;;;;;;;;21.50;47.50;20.20;101010.00;;;;5078476;28;19917;-67
2022/10/14 05:04:06;;;;;;;;;;;21.50;47.50;20.30;100992.00;;;;5082062;28;19920;-67
2022/10/14 05:06:52;;;;;;;;;;;21.50;47.50;20.30;100999.00;;;;5062250;28;19959;-67
2022/10/14 05:09:38;;;;;;;;;;;21.50;47.50;20.30;101003.00;;;;5080014;28;19971;-67
2022/10/14 05:12:24;;;;;;;;;;;21.50;47.50;20.20;100994.00;;;;5077472;28;20046;-67
2022/10/14 05:15:11;;;;;;;;;;;21.50;47.50;20.20;100998.00;;;;5078562;28;20301;-67
2022/10/14 05:17:57;;;;;;;;;;;21.50;47.50;20.30;100991.00;;;;5080058;28;19928;-67
2022/10/14 05:20:43;;;;;;;;;;;21.50;47.50;20.20;100996.00;;;;5075710;28;20365;-67
2022/10/14 05:23:29;;;;;;;;;;;21.50;47.50;20.20;101003.00;;;;5076882;28;20320;-67
2022/10/14 05:26:15;;;;;;;;;;;21.50;47.50;20.30;101001.00;;;;5073049;28;19927;-67
2022/10/14 05:29:01;;;;;;;;;;;21.50;47.50;20.20;100994.00;;;;5074432;28;19917;-67
2022/10/14 05:31:47;;;;;;;;;;;21.50;47.50;20.30;100993.00;;;;5075943;28;19927;-67
2022/10/14 05:34:34;;;;;;;;;;;21.50;47.50;20.30;100992.00;;;;5080952;28;19928;-67
2022/10/14 05:37:20;;;;;;;;;;;21.50;47.50;20.20;100995.00;;;;5067209;28;19978;-67
2022/10/14 05:40:07;;;;;;;;;;;21.50;47.50;20.20;100994.00;;;;5071218;28;19920;-67
2022/10/14 05:42:53;;;;;;;;;;;21.50;47.50;20.20;100982.00;;;;5062616;28;20370;-67
2022/10/14 05:45:39;;;;;;;;;;;21.50;47.50;20.20;100976.00;;;;5071419;28;19931;-67
2022/10/14 05:48:25;;;;;;;;;;;21.50;47.50;20.20;100982.00;;;;5079884;28;19916;-67
2022/10/14 05:51:11;;;;;;;;;;;21.50;47.50;20.20;100985.00;;;;5075300;28;19923;-68
2022/10/14 05:53:57;;;;;;;;;;;21.50;47.50;20.20;100975.00;;;;5077182;28;19930;-67
2022/10/14 05:56:43;;;;;;;;;;;21.50;47.50;20.20;100970.00;;;;5077389;28;19916;-67
2022/10/14 05:59:30;;;;;;;;;;;21.50;47.50;20.20;100966.00;;;;5076415;28;19969;-67
2022/10/14 06:02:16;;;;;;;;;;;21.50;47.50;20.20;100968.00;;;;5075070;28;19970;-67
2022/10/14 06:05:02;;;;;;;;;;;21.50;47.50;20.20;100959.00;;;;5063427;28;19924;-67
2022/10/14 06:07:48;;;;;;;;;;;21.50;47.50;20.20;100955.00;;;;5092337;28;19931;-67
2022/10/14 06:10:34;;;;;;;;;;;21.50;47.50;20.20;100950.00;;;;5087516;28;19919;-67
2022/10/14 06:13:20;;;;;;;;;;;21.50;47.50;20.20;100938.00;;;;5092540;28;19928;-67
2022/10/14 06:16:07;;;;;;;;;;;21.50;47.50;20.20;100940.00;;;;5085325;28;20396;-67
2022/10/14 06:18:53;;;;;;;;;;;21.50;47.50;20.20;100930.00;;;;5060271;28;20033;-67
2022/10/14 06:21:39;;;;;;;;;;;21.50;47.50;20.20;100930.00;;;;5060008;28;19916;-68
2022/10/14 06:24:25;;;;;;;;;;;21.50;47.50;20.20;100933.00;;;;5081844;28;19921;-67
2022/10/14 06:27:11;;;;;;;;;;;21.40;47.50;20.20;100925.00;;;;5088076;28;19920;-67
2022/10/14 06:29:57;;;;;;;;;;;21.50;47.50;20.20;100934.00;;;;5083826;28;20422;-67
2022/10/14 06:32:43;;;;;;;;;;;21.40;47.40;20.20;100934.00;;;;5084754;28;19920;-67
2022/10/14 06:35:29;;;;;;;;;;;21.50;47.50;20.20;100927.00;;;;5090386;28;19920;-67
2022/10/14 06:38:15;;;;;;;;;;;21.50;47.50;20.20;100926.00;;;;5083571;28;19916;-67
2022/10/14 06:41:01;;;;;;;;;;;21.50;47.50;20.20;100930.00;;;;5079710;28;19923;-67
2022/10/14 06:43:47;;;;;;;;;;;21.50;47.50;20.20;100919.00;;;;5067966;28;20364;-67
2022/10/14 06:46:33;;;;;;;;;;;21.50;47.50;20.20;100918.00;;;;5084153;28;20011;-67
2022/10/14 06:49:19;;;;;;;;;;;21.50;47.50;20.20;100919.00;;;;5083662;28;19927;-67
2022/10/14 06:52:05;;;;;;;;;;;21.50;47.50;20.20;100919.00;;;;5080318;28;19916;-67
2022/10/14 06:54:51;;;;;;;;;;;21.40;47.40;20.20;100917.00;;;;5078327;28;19969;-67
2022/10/14 06:57:37;;;;;;;;;;;21.50;47.50;20.20;100924.00;;;;5090924;28;20129;-67
2022/10/14 07:00:23;;;;;;;;;;;21.40;47.40;20.20;100920.00;;;;5083247;28;19916;-67
2022/10/14 07:03:09;;;;;;;;;;;21.50;47.50;20.20;100916.00;;;;5074695;28;19917;-67
2022/10/14 07:05:55;;;;;;;;;;;21.40;47.40;20.20;100921.00;;;;5081906;28;20398;-67
2022/10/14 07:08:41;;;;;;;;;;;21.50;47.50;20.20;100924.00;;;;5096661;27;19916;-67
2022/10/14 07:11:27;;;;;;;;;;;21.50;47.50;20.20;100922.00;;;;5081974;28;19924;-67
2022/10/14 07:14:13;;;;;;;;;;;21.50;47.50;20.20;100929.00;;;;5089575;28;19916;-67
2022/10/14 07:16:59;;;;;;;;;;;21.50;47.50;20.20;100926.00;;;;5068200;28;20278;-67
2022/10/14 07:19:45;;;;;;;;;;;21.50;47.50;20.20;100930.00;;;;5084410;28;19916;-67
2022/10/14 07:22:31;;;;;;;;;;;21.50;47.50;20.20;100916.00;;;;5093029;28;19920;-67
2022/10/14 07:25:17;;;;;;;;;;;21.40;47.40;20.20;100927.00;;;;5076507;28;19921;-67
2022/10/14 07:28:04;;;;;;;;;;;21.40;47.40;20.20;100923.00;;;;5083169;28;19920;-67
2022/10/14 07:30:57;;;;;;;;;;;21.40;47.50;20.20;100919.00;;;;5077088;28;20423;-67
2022/10/14 07:33:43;;;;;;;;;;;21.50;47.50;20.20;100910.00;;;;5085236;28;20262;-67
2022/10/14 07:36:29;;;;;;;;;;;21.50;47.50;20.20;100911.00;;;;5055708;28;19916;-67
2022/10/14 07:39:15;;;;;;;;;;;21.50;47.50;20.20;100901.00;;;;5083668;28;19923;-67
2022/10/14 07:42:01;;;;;;;;;;;21.50;47.50;20.20;100911.00;;;;5083953;28;19973;-67
2022/10/14 07:44:47;;;;;;;;;;;21.50;47.50;20.20;100911.00;;;;5076219;28;19928;-67
2022/10/14 07:47:33;;;;;;;;;;;21.50;47.50;20.30;100911.00;;;;5082865;28;20288;-67
2022/10/14 07:50:19;;;;;;;;;;;21.40;47.40;20.30;100902.00;;;;5075511;28;19966;-67
2022/10/14 07:53:05;;;;;;;;;;;21.50;47.50;20.30;100918.00;;;;5071366;28;19970;-67
2022/10/14 07:55:51;;;;;;;;;;;21.60;47.50;20.30;100906.00;;;;5074988;28;19916;-67
2022/10/14 07:58:37;;;;;;;;;;;21.60;47.50;20.30;100895.00;;;;5079815;28;19931;-67
2022/10/14 08:01:23;;;;;;;;;;;21.50;47.50;20.30;100904.00;;;;5077939;28;19923;-66
2022/10/14 08:04:10;;;;;;;;;;;21.60;47.50;20.30;100893.00;;;;5081136;28;19920;-66
2022/10/14 08:06:56;;;;;;;;;;;21.50;47.50;20.30;100900.00;;;;5092025;28;20366;-67
2022/10/14 08:09:42;;;;;;;;;;;21.50;47.50;20.30;100898.00;;;;5079409;28;19916;-67
2022/10/14 08:12:28;;;;;;;;;;;21.50;47.50;20.30;100887.00;;;;5078016;28;20313;-67
2022/10/14 08:15:14;;;;;;;;;;;21.50;47.50;20.30;100886.00;;;;5081992;28;19959;-66
2022/10/14 08:18:00;;;;;;;;;;;21.50;47.50;20.30;100885.00;;;;5080672;28;21080;-66
2022/10/14 08:20:49;;;;;;;;;;;21.50;47.50;20.30;100894.00;;;;5082210;28;19916;-66
2022/10/14 08:23:35;;;;;;;;;;;21.50;47.50;20.30;100894.00;;;;5078370;28;20321;-67
2022/10/14 08:26:33;;;;;;;;;;;21.50;47.50;20.30;100896.00;;;;5066575;28;20381;-67
2022/10/14 08:29:21;;;;;;;;;;;21.60;47.50;20.30;100882.00;;;;5074675;28;19979;-67
2022/10/14 08:32:07;;;;;;;;;;;21.60;47.50;20.30;100888.00;;;;5083173;28;20377;-66
2022/10/14 08:34:54;;;;;;;;;;;21.60;47.50;20.30;100893.00;;;;5072928;28;19927;-67
2022/10/14 08:37:40;;;;;;;;;;;21.70;47.60;20.30;100901.00;;;;5075604;28;20636;-67
2022/10/14 08:40:27;;;;;;;;;;;21.60;47.50;20.30;100889.00;;;;5083710;28;20003;-67
2022/10/14 08:43:24;;;;;;;;;;;21.70;47.60;20.30;100901.00;;;;5066034;28;19920;-67
2022/10/14 08:46:16;;;;;;;;;;;21.60;47.60;20.30;100900.00;;;;5094601;27;20003;-66
2022/10/14 08:49:19;;;;;;;;;;;21.50;47.50;20.30;100898.00;;;;5075979;28;19950;-66
2022/10/14 08:52:08;;;;;;;;;;;21.60;47.50;20.30;100892.00;;;;5089094;28;19916;-66
2022/10/14 08:54:56;;;;;;;;;;;21.60;47.50;20.30;100878.00;;;;5080360;28;20014;-66
2022/10/14 08:57:48;;;;;;;;;;;21.60;47.50;20.30;100881.00;;;;5066286;28;20170;-66
2022/10/14 09:00:34;;;;;;;;;;;21.60;47.60;20.30;100892.00;;;;5063038;28;19928;-67
2022/10/14 09:03:21;;;;;;;;;;;21.50;47.50;20.30;100878.00;;;;5063852;28;19916;-67
2022/10/14 09:06:21;;;;;;;;;;;21.60;47.60;20.30;100866.00;;;;5081311;28;20075;-67
2022/10/14 09:09:19;;;;;;;;;;;21.60;47.60;20.30;100859.00;;;;5083504;27;19995;-67
2022/10/14 09:12:10;;;;;;;;;;;21.50;47.60;20.30;100865.00;;;;5078651;28;19916;-67
2022/10/14 09:15:07;;;;;;;;;;;21.50;47.60;20.30;100861.00;;;;5065612;28;19928;-67
2022/10/14 09:18:27;;;;;;;;;;;21.60;48.30;20.30;100858.00;;;;5072807;28;20271;-67
2022/10/14 09:21:30;;;;;;;;;;;21.50;47.60;20.30;100853.00;;;;5056920;28;19916;-67
2022/10/14 09:24:21;;;;;;;;;;;21.60;47.70;20.30;100844.00;;;;5069135;28;20274;-67
2022/10/14 09:27:12;;;;;;;;;;;21.60;47.70;20.30;100846.00;;;;5091192;28;19936;-68
2022/10/14 09:29:59;;;;;;;;;;;21.60;47.80;20.30;100835.00;;;;5082595;28;20289;-67
2022/10/14 09:32:49;;;;;;;;;;;21.60;47.70;20.30;100836.00;;;;5077138;28;19923;-67
2022/10/14 09:35:36;;;;;;;;;;;21.60;47.70;20.30;100843.00;;;;5076900;28;19995;-67
2022/10/14 09:38:23;;;;;;;;;;;21.60;47.70;20.30;100835.00;;;;5070666;28;19924;-67
2022/10/14 09:41:09;;;;;;;;;;;21.60;47.70;20.30;100833.00;;;;5067295;28;20334;-67
2022/10/14 09:44:20;;;;;;;;;;;21.60;47.70;20.30;100828.00;;;;5079853;28;19915;-67
2022/10/14 09:47:06;;;;;;;;;;;21.60;47.80;20.30;100834.00;;;;5072820;28;19931;-67
2022/10/14 09:49:52;;;;;;;;;;;21.60;47.70;20.30;100827.00;;;;5068327;28;20177;-67
2022/10/14 09:52:38;;;;;;;;;;;21.60;47.80;20.30;100820.00;;;;5088838;28;20324;-67
2022/10/14 09:55:24;;;;;;;;;;;21.60;47.80;20.30;100801.00;;;;5060854;28;19952;-67
2022/10/14 09:58:17;;;;;;;;;;;21.60;47.80;20.30;100820.00;;;;5083202;28;20003;-67
2022/10/14 10:01:03;;;;;;;;;;;21.60;47.80;20.30;100810.00;;;;5083804;28;20267;-67
2022/10/14 10:03:50;;;;;;;;;;;21.60;47.80;20.30;100799.00;;;;5047061;28;20290;-67
2022/10/14 10:06:47;;;;;;;;;;;21.60;47.80;20.30;100805.00;;;;5078955;28;20407;-67
2022/10/14 10:09:33;;;;;;;;;;;21.60;47.80;20.30;100805.00;;;;5078589;28;19923;-67
2022/10/14 10:12:40;;;;;;;;;;;21.60;47.80;20.30;100797.00;;;;5073302;28;19920;-67
2022/10/14 10:15:26;;;;;;;;;;;21.60;47.80;20.30;100798.00;;;;5089642;27;19921;-67
2022/10/14 10:18:18;;;;;;;;;;;21.70;47.90;20.30;100790.00;;;;5079629;28;19924;-67
2022/10/14 10:21:06;;;;;;;;;;;21.70;47.80;20.30;100786.00;;;;5079253;28;19924;-67
2022/10/14 10:23:54;;;;;;;;;;;21.70;47.80;20.30;100789.00;;;;5069576;28;19920;-67
2022/10/14 10:26:40;;;;;;;;;;;21.70;47.80;20.30;100787.00;;;;5074165;28;20388;-67
2022/10/14 10:29:34;;;;;;;;;;;21.70;47.90;20.40;100787.00;;;;5083768;28;19924;-67
2022/10/14 10:32:33;;;;;;;;;;;21.60;47.80;20.30;100795.00;;;;5090951;28;20115;-67
2022/10/14 10:35:28;;;;;;;;;;;21.70;47.90;20.30;100787.00;;;;5082492;28;19927;-67
2022/10/14 10:38:30;;;;;;;;;;;21.70;47.90;20.40;100787.00;;;;5081049;28;20324;-67
2022/10/14 10:41:24;;;;;;;;;;;21.70;47.90;20.40;100784.00;;;;5078068;28;19920;-67
2022/10/14 10:44:24;;;;;;;;;;;21.70;47.90;20.30;100781.00;;;;5090025;28;19916;-67
2022/10/14 10:47:23;;;;;;;;;;;21.60;47.90;20.30;100776.00;;;;5076729;28;19924;-67
2022/10/14 10:50:36;;;;;;;;;;;21.70;47.90;20.30;100772.00;;;;5084431;28;19999;-67
2022/10/14 10:53:48;;;;;;;;;;;21.70;48.00;20.30;100769.00;;;;5046505;28;19925;-67
2022/10/14 10:56:41;;;;;;;;;;;21.70;48.00;20.30;100772.00;;;;5074115;28;19999;-67
2022/10/14 10:59:46;;;;;;;;;;;21.60;47.90;20.40;100763.00;;;;5097942;27;20338;-67
2022/10/14 11:02:56;;;;;;;;;;;21.60;47.90;20.40;100770.00;;;;5073985;28;20102;-67
2022/10/14 11:06:04;;;;;;;;;;;21.70;48.10;20.30;100754.00;;;;5082650;28;19920;-67
2022/10/14 11:12:43;;;;;;;;;;;21.60;48.00;20.30;100753.00;;;;5073587;28;19916;-72
2022/10/14 11:16:03;;;;;;;;;;;21.70;48.10;20.30;100747.00;;;;5075713;28;19930;-72
2022/10/14 11:18:50;;;;;;;;;;;21.70;48.10;20.40;100749.00;;;;5067960;28;20369;-72
2022/10/14 11:21:42;;;;;;;;;;;21.70;48.10;20.40;100741.00;;;;5069909;28;19917;-72
2022/10/14 11:24:57;;;;;;;;;;;21.70;48.10;20.40;100736.00;;;;5084204;28;20312;-72
2022/10/14 11:27:50;;;;;;;;;;;21.70;48.10;20.40;100735.00;;;;5083123;28;19958;-72
2022/10/14 11:31:01;;;;;;;;;;;21.60;48.00;20.40;100734.00;;;;5076863;28;19970;-72
2022/10/14 11:34:06;;;;;;;;;;;21.70;48.10;20.40;100731.00;;;;5081494;28;20349;-73
2022/10/14 11:37:14;;;;;;;;;;;21.60;48.10;20.40;100730.00;;;;5095092;27;19919;-72
2022/10/14 11:40:05;;;;;;;;;;;21.70;48.20;20.40;100728.00;;;;5059846;28;19916;-72
2022/10/14 11:43:00;;;;;;;;;;;21.70;48.20;20.40;100730.00;;;;5081461;28;19967;-72
2022/10/14 11:46:01;;;;;;;;;;;21.60;48.10;20.40;100721.00;;;;5075723;28;19964;-73
2022/10/14 11:48:56;;;;;;;;;;;21.70;48.20;20.40;100720.00;;;;5084111;28;20347;-72
2022/10/14 11:51:46;;;;;;;;;;;21.70;48.20;20.40;100706.00;;;;5075835;28;19916;-72
2022/10/14 11:54:33;;;;;;;;;;;21.60;48.10;20.40;100699.00;;;;5077115;28;20003;-72
2022/10/14 11:57:35;;;;;;;;;;;21.70;48.20;20.40;100700.00;;;;5064722;28;20335;-72
2022/10/14 12:00:21;;;;;;;;;;;21.70;48.20;20.40;100689.00;;;;5073114;28;19999;-73
2022/10/14 12:03:12;;;;;;;;;;;21.70;48.20;20.40;100691.00;;;;5080881;28;20369;-73
2022/10/14 12:06:11;;;;;;;;;;;21.70;48.30;20.40;100691.00;;;;5094452;28;19920;-72
2022/10/14 12:09:00;;;;;;;;;;;21.70;48.30;20.40;100688.00;;;;5072845;28;19935;-73
2022/10/14 12:11:55;;;;;;;;;;;21.70;48.30;20.40;100676.00;;;;5088856;27;19924;-73
2022/10/14 12:14:54;;;;;;;;;;;21.70;48.30;20.40;100677.00;;;;5079759;28;20274;-72
2022/10/14 12:17:53;;;;;;;;;;;21.70;48.30;20.40;100677.00;;;;5090598;27;19920;-73
2022/10/14 12:21:00;;;;;;;;;;;21.70;48.30;20.40;100667.00;;;;5080862;28;19985;-72
2022/10/14 12:23:48;;;;;;;;;;;21.70;48.30;20.40;100672.00;;;;5077677;28;19920;-72
2022/10/14 12:26:51;;;;;;;;;;;21.70;48.30;20.40;100672.00;;;;5053205;28;19924;-72
2022/10/14 12:29:40;;;;;;;;;;;21.70;48.30;20.40;100660.00;;;;5093514;27;20348;-73
2022/10/14 12:32:29;;;;;;;;;;;21.70;48.40;20.40;100655.00;;;;5046822;28;19932;-73
2022/10/14 12:35:44;;;;;;;;;;;21.70;48.40;20.40;100659.00;;;;5062640;28;19923;-72
2022/10/14 12:38:33;;;;;;;;;;;21.70;48.30;20.40;100658.00;;;;5085401;28;19926;-73
2022/10/14 12:41:33;;;;;;;;;;;21.80;48.40;20.40;100654.00;;;;5064849;28;20361;-73
2022/10/14 12:44:19;;;;;;;;;;;21.70;48.30;20.40;100650.00;;;;5061987;28;19927;-72
2022/10/14 12:47:05;;;;;;;;;;;21.70;48.40;20.40;100642.00;;;;5088133;28;19998;-73
2022/10/14 12:49:52;;;;;;;;;;;21.80;48.40;20.40;100640.00;;;;5059622;28;19922;-72
2022/10/14 12:52:38;;;;;;;;;;;21.80;48.40;20.40;100640.00;;;;5096925;28;20404;-73
2022/10/14 12:55:25;;;;;;;;;;;21.80;48.40;20.40;100631.00;;;;5073019;28;19996;-72
2022/10/14 12:58:11;;;;;;;;;;;21.80;48.40;20.40;100625.00;;;;5087738;28;20401;-72
2022/10/14 13:01:02;;;;;;;;;;;21.80;48.40;20.40;100633.00;;;;5089484;27;20339;-73
2022/10/14 13:03:53;;;;;;;;;;;21.80;48.40;20.40;100625.00;;;;5087995;28;19942;-81
2022/10/14 13:06:41;;;;;;;;;;;21.80;48.40;20.40;100628.00;;;;5083276;28;19920;-72
2022/10/14 13:09:31;;;;;;;;;;;21.80;48.40;20.40;100629.00;;;;5088613;27;19924;-72
2022/10/14 13:12:17;;;;;;;;;;;21.80;48.50;20.40;100627.00;;;;5064204;28;20421;-73
2022/10/14 13:15:29;;;;;;;;;;;21.80;48.50;20.40;100616.00;;;;5080340;28;19920;-72
2022/10/14 13:18:27;;;;;;;;;;;21.80;48.50;20.40;100617.00;;;;5083730;28;19927;-72
2022/10/14 13:21:29;;;;;;;;;;;21.80;48.50;20.40;100616.00;;;;5079418;28;19970;-73
2022/10/14 13:24:19;;;;;;;;;;;21.80;48.50;20.40;100612.00;;;;5084537;28;19967;-72
2022/10/14 13:27:05;;;;;;;;;;;21.70;48.50;20.40;100605.00;;;;5072188;28;20379;-72
2022/10/14 13:29:51;;;;;;;;;;;21.80;48.50;20.40;100604.00;;;;5079624;28;19923;-72
2022/10/14 13:32:56;;;;;;;;;;;21.70;48.50;20.40;100595.00;;;;5076660;28;19920;-72
2022/10/14 13:35:46;;;;;;;;;;;21.80;48.50;20.50;100589.00;;;;5077022;28;19919;-72
2022/10/14 13:38:32;;;;;;;;;;;21.80;48.60;20.50;100586.00;;;;5089950;27;19924;-72
2022/10/14 13:41:23;;;;;;;;;;;21.70;48.50;20.50;100586.00;;;;5047950;28;19920;-72
2022/10/14 13:44:09;;;;;;;;;;;21.80;48.60;20.50;100577.00;;;;5093947;28;20243;-72